Terminal Aerodrome Forecast
Issued by NWS

Home | Current Version | Previous Version | Text Only | Print | Product List | Glossary On
Versions: 1 2 3 4 5 6 7 8 9 10 11 12 13 14 15 16 17
000
FTUS42 KTBW 281120
TAFPIE
TAF
KPIE 281120Z 2812/2912 06009KT P6SM SCT005
      TEMPO 2812/2813 BKN005
     FM281500 08010KT P6SM SCT030 SCT250
     FM281800 08010G15KT P6SM VCTS BKN040CB BKN150
     FM290100 07010KT P6SM SCT050 SCT150 BKN200=

USA.gov is the U.S. government's official web portal to all federal, state and local government web resources and services.